createdAt,value
2022-10-23T00:02:28.297Z,3.40
2022-10-23T00:04:59.177Z,3.50
2022-10-23T00:10:07.267Z,3.20
2022-10-23T00:12:39.291Z,3.40
2022-10-23T00:15:11.706Z,3.60
2022-10-23T00:17:42.498Z,3.20
2022-10-23T00:20:15.582Z,3.50
2022-10-23T00:22:46.492Z,3.40
2022-10-23T00:25:18.556Z,3.50
2022-10-23T00:27:49.635Z,3.30
2022-10-23T00:30:20.720Z,3.20
2022-10-23T00:32:51.290Z,3.40
2022-10-23T00:35:22.199Z,4.10
2022-10-23T00:37:52.958Z,3.60
2022-10-23T00:40:24.009Z,3.50
2022-10-23T00:42:54.697Z,3.70
2022-10-23T00:45:31.200Z,2.90
2022-10-23T00:48:02.984Z,3.20
2022-10-23T00:50:35.356Z,3.10
2022-10-23T00:53:08.002Z,3.10
2022-10-23T00:55:41.243Z,3.20
2022-10-23T00:58:11.852Z,3.40
2022-10-23T01:00:48.284Z,3.50
2022-10-23T01:03:21.384Z,3.60
2022-10-23T01:06:01.015Z,3.80
2022-10-23T01:11:13.299Z,3.00
2022-10-23T01:13:53.835Z,3.20
2022-10-23T01:16:30.033Z,3.50
2022-10-23T01:19:10.245Z,3.30
2022-10-23T01:21:55.566Z,3.40
2022-10-23T01:24:44.441Z,2.80
2022-10-23T01:27:25.188Z,4.00
2022-10-23T01:30:06.095Z,3.10
2022-10-23T01:32:45.573Z,3.30
2022-10-23T01:37:51.579Z,3.30
2022-10-23T01:40:27.423Z,3.50
2022-10-23T01:43:05.125Z,3.20
2022-10-23T01:45:40.340Z,3.30
2022-10-23T01:48:15.097Z,3.30
2022-10-23T01:50:47.464Z,3.30
2022-10-23T01:53:18.673Z,3.00
2022-10-23T01:55:51.097Z,3.20
2022-10-23T01:58:22.954Z,3.00
2022-10-23T02:00:57.861Z,3.10
2022-10-23T02:03:31.036Z,3.30
2022-10-23T02:06:02.118Z,3.40
2022-10-23T02:08:33.681Z,3.10
2022-10-23T02:11:11.261Z,3.30
2022-10-23T02:13:51.147Z,3.30
2022-10-23T02:16:30.024Z,3.30
2022-10-23T02:19:12.859Z,3.30
2022-10-23T02:21:51.796Z,3.30
2022-10-23T02:24:28.442Z,3.30
2022-10-23T02:27:02.065Z,3.30
2022-10-23T02:29:36.381Z,2.90
2022-10-23T02:32:08.412Z,3.20
2022-10-23T02:34:39.405Z,3.60
2022-10-23T02:37:10.275Z,3.10
2022-10-23T02:39:41.685Z,3.20
2022-10-23T02:42:19.345Z,3.60
2022-10-23T02:45:02.299Z,3.00
2022-10-23T02:47:42.398Z,3.50
2022-10-23T02:50:20.861Z,3.30
2022-10-23T02:52:58.983Z,3.10
2022-10-23T02:55:43.764Z,2.70
2022-10-23T02:58:22.232Z,3.40
2022-10-23T03:00:57.199Z,3.20
2022-10-23T03:03:33.560Z,3.80
2022-10-23T03:06:04.973Z,3.30
2022-10-23T03:08:44.480Z,3.00
2022-10-23T03:11:15.257Z,3.30
2022-10-23T03:13:45.990Z,3.40
2022-10-23T03:16:16.637Z,3.00
2022-10-23T03:18:47.392Z,3.30
2022-10-23T03:21:18.082Z,3.30
2022-10-23T03:23:48.760Z,3.30
2022-10-23T03:26:19.811Z,3.70
2022-10-23T03:28:50.420Z,3.20
2022-10-23T03:31:21.074Z,3.20
2022-10-23T03:33:51.712Z,3.60
2022-10-23T03:36:22.583Z,2.70
2022-10-23T03:38:54.602Z,3.10
2022-10-23T03:41:25.283Z,3.90
2022-10-23T03:43:56.018Z,3.20
2022-10-23T03:46:27.244Z,3.00
2022-10-23T03:48:59.028Z,3.00
2022-10-23T03:51:29.793Z,3.30
2022-10-23T03:54:00.691Z,3.00
2022-10-23T03:56:31.338Z,3.20
2022-10-23T03:59:02.263Z,2.90
2022-10-23T04:01:33.005Z,3.20
2022-10-23T04:04:04.147Z,3.00
2022-10-23T04:06:34.865Z,3.00
2022-10-23T04:09:06.049Z,3.10
2022-10-23T04:11:37.178Z,3.10
2022-10-23T04:14:07.920Z,3.10
2022-10-23T04:16:38.563Z,3.40
2022-10-23T04:19:09.291Z,3.40
2022-10-23T04:21:40.342Z,3.10
2022-10-23T04:24:11.320Z,3.00
2022-10-23T04:26:42.317Z,2.70
2022-10-23T04:29:12.974Z,3.00
2022-10-23T04:31:43.790Z,3.20
2022-10-23T04:34:14.409Z,3.60
2022-10-23T04:36:45.434Z,3.10
2022-10-23T04:39:16.294Z,3.40
2022-10-23T04:41:47.497Z,3.20
2022-10-23T04:44:18.820Z,3.40
2022-10-23T04:46:49.508Z,2.90
2022-10-23T04:49:20.252Z,2.90
2022-10-23T04:51:50.931Z,3.20
2022-10-23T04:54:21.552Z,2.80
2022-10-23T04:56:52.308Z,2.90
2022-10-23T04:59:22.975Z,2.90
2022-10-23T05:01:53.693Z,3.40
2022-10-23T05:04:25.646Z,2.90
2022-10-23T05:06:56.276Z,3.00
2022-10-23T05:09:26.938Z,3.00
2022-10-23T05:11:57.622Z,3.20
2022-10-23T05:14:28.391Z,3.00
2022-10-23T05:17:03.657Z,3.00
2022-10-23T05:19:40.023Z,3.40
2022-10-23T05:22:11.950Z,3.60
2022-10-23T05:24:45.808Z,2.80
2022-10-23T05:27:19.068Z,3.30
2022-10-23T05:29:49.705Z,3.20
2022-10-23T05:34:52.308Z,2.70
2022-10-23T05:37:23.164Z,2.50
2022-10-23T05:39:54.586Z,2.70
2022-10-23T05:42:25.542Z,3.00
2022-10-23T05:44:56.285Z,2.90
2022-10-23T05:47:27.229Z,3.40
2022-10-23T05:49:57.907Z,3.40
2022-10-23T05:52:28.908Z,3.40
2022-10-23T05:54:59.553Z,2.90
2022-10-23T05:57:33.143Z,2.70
2022-10-23T06:02:33.626Z,3.00
2022-10-23T06:05:05.170Z,2.60
2022-10-23T06:07:36.135Z,2.60
2022-10-23T06:10:07.971Z,2.80
2022-10-23T06:12:38.834Z,2.70
2022-10-23T06:15:11.450Z,2.80
2022-10-23T06:17:42.337Z,2.60
2022-10-23T06:20:14.208Z,2.50
2022-10-23T06:22:45.122Z,3.60
2022-10-23T06:25:16.610Z,2.70
2022-10-23T06:27:47.473Z,3.40
2022-10-23T06:30:18.752Z,2.70
2022-10-23T06:32:49.512Z,2.80
2022-10-23T06:35:20.157Z,2.60
2022-10-23T06:37:50.891Z,2.50
2022-10-23T06:40:21.565Z,2.20
2022-10-23T06:42:52.360Z,2.50
2022-10-23T06:45:22.977Z,2.40
2022-10-23T06:47:54.359Z,2.60
2022-10-23T06:50:25.272Z,2.20
2022-10-23T06:52:56.320Z,2.60
2022-10-23T06:55:27.317Z,2.30
2022-10-23T06:57:58.229Z,1.90
2022-10-23T07:00:29.305Z,2.50
2022-10-23T07:03:00.311Z,2.40
2022-10-23T07:05:31.166Z,2.60
2022-10-23T07:08:01.849Z,2.40
2022-10-23T07:10:32.550Z,2.30
2022-10-23T07:13:03.322Z,2.50
2022-10-23T07:15:34.431Z,2.30
2022-10-23T07:18:05.762Z,2.10
2022-10-23T07:20:38.301Z,2.30
2022-10-23T07:23:10.396Z,2.10
2022-10-23T07:25:41.134Z,2.40
2022-10-23T07:28:12.063Z,2.30
2022-10-23T07:30:43.118Z,2.30
2022-10-23T07:33:14.122Z,2.40
2022-10-23T07:35:46.286Z,2.30
2022-10-23T07:38:17.772Z,2.50
2022-10-23T07:40:48.811Z,2.00
2022-10-23T07:43:20.964Z,2.00
2022-10-23T07:45:53.152Z,2.40
2022-10-23T07:48:24.143Z,2.40
2022-10-23T07:50:55.690Z,2.20
2022-10-23T07:53:28.803Z,2.20
2022-10-23T07:56:01.097Z,2.30
2022-10-23T07:58:32.410Z,2.60
2022-10-23T08:01:04.826Z,2.40
2022-10-23T08:03:36.068Z,2.40
2022-10-23T08:06:07.334Z,2.40
2022-10-23T08:08:38.085Z,2.40
2022-10-23T08:11:11.980Z,2.90
2022-10-23T08:13:44.105Z,2.70
2022-10-23T08:16:15.351Z,2.40
2022-10-23T08:18:47.319Z,2.50
2022-10-23T08:21:19.129Z,2.60
2022-10-23T08:23:49.934Z,2.50
2022-10-23T08:26:20.986Z,2.40
2022-10-23T08:28:52.066Z,2.30
2022-10-23T08:31:25.207Z,2.30
2022-10-23T08:33:56.042Z,2.60
2022-10-23T08:36:29.037Z,2.10
2022-10-23T08:39:00.748Z,2.30
2022-10-23T08:41:34.886Z,2.10
2022-10-23T08:44:14.148Z,2.40
2022-10-23T08:46:46.088Z,2.40
2022-10-23T08:49:27.781Z,2.40
2022-10-23T08:52:01.798Z,2.40
2022-10-23T08:54:41.367Z,2.00
2022-10-23T08:57:16.589Z,2.00
2022-10-23T08:59:51.565Z,2.20
2022-10-23T09:02:26.112Z,1.90
2022-10-23T09:04:59.129Z,1.60
2022-10-23T09:07:41.130Z,2.20
2022-10-23T09:10:51.920Z,1.70
2022-10-23T09:13:49.534Z,2.20
2022-10-23T09:16:33.978Z,1.60
2022-10-23T09:19:12.109Z,2.30
2022-10-23T09:21:43.552Z,2.00
2022-10-23T09:24:18.765Z,1.90
2022-10-23T09:26:51.756Z,1.60
2022-10-23T09:29:27.118Z,1.30
2022-10-23T09:31:59.964Z,1.90
2022-10-23T09:34:32.585Z,1.90
2022-10-23T09:37:05.163Z,1.50
2022-10-23T09:39:37.672Z,1.90
2022-10-23T09:42:25.593Z,1.70
2022-10-23T09:44:57.645Z,1.90
2022-10-23T09:47:28.830Z,1.60
2022-10-23T09:49:59.633Z,2.10
2022-10-23T09:52:38.634Z,1.70
2022-10-23T09:55:25.010Z,1.70
2022-10-23T09:57:56.674Z,1.60
2022-10-23T10:00:28.902Z,1.70
2022-10-23T10:03:03.990Z,1.40
2022-10-23T10:05:36.861Z,1.40
2022-10-23T10:08:15.470Z,1.30
2022-10-23T10:10:51.285Z,1.20
2022-10-23T10:13:37.697Z,1.40
2022-10-23T10:16:13.694Z,1.90
2022-10-23T10:18:50.305Z,1.40
2022-10-23T10:21:29.055Z,1.50
2022-10-23T10:24:06.420Z,1.10
2022-10-23T10:26:45.535Z,1.90
2022-10-23T10:29:30.769Z,1.40
2022-10-23T10:32:13.190Z,1.30
2022-10-23T10:34:52.785Z,1.40
2022-10-23T10:40:18.689Z,1.10
2022-10-23T10:43:04.226Z,1.40
2022-10-23T10:45:39.717Z,1.20
2022-10-23T10:48:31.407Z,1.30
2022-10-23T10:51:07.229Z,1.00
2022-10-23T10:53:53.313Z,1.10
2022-10-23T10:56:26.369Z,1.10
2022-10-23T10:59:01.734Z,1.40
2022-10-23T11:01:37.920Z,1.30
2022-10-23T11:04:19.778Z,1.00
2022-10-23T11:06:55.548Z,1.00
2022-10-23T11:09:29.762Z,1.10
2022-10-23T11:12:00.879Z,1.30
2022-10-23T11:14:35.022Z,1.10
2022-10-23T11:17:12.115Z,1.10
2022-10-23T11:19:50.706Z,1.50
2022-10-23T11:22:28.095Z,1.50
2022-10-23T11:25:15.597Z,1.60
2022-10-23T11:28:03.699Z,1.70
2022-10-23T11:30:45.645Z,1.50
2022-10-23T11:33:47.167Z,1.50
2022-10-23T11:36:20.957Z,1.20
2022-10-23T11:38:53.863Z,1.80
2022-10-23T11:41:28.556Z,1.30
2022-10-23T11:44:03.553Z,1.30
2022-10-23T11:46:36.615Z,1.90
2022-10-23T11:49:21.293Z,1.30
2022-10-23T11:52:03.296Z,1.50
2022-10-23T11:54:34.534Z,1.30
2022-10-23T11:57:17.361Z,1.50
2022-10-23T11:59:58.686Z,1.60
2022-10-23T12:02:38.270Z,1.20
2022-10-23T12:05:26.758Z,1.10
2022-10-23T12:07:59.940Z,1.40
2022-10-23T12:10:35.161Z,1.20
2022-10-23T12:13:07.691Z,1.20
2022-10-23T12:15:38.445Z,1.30
2022-10-23T12:18:17.723Z,1.40
2022-10-23T12:20:52.732Z,1.60
2022-10-23T12:23:47.291Z,1.20
2022-10-23T12:26:50.603Z,1.40
2022-10-23T12:29:43.214Z,1.70
2022-10-23T12:32:29.748Z,1.40
2022-10-23T12:35:19.493Z,1.50
2022-10-23T12:38:03.897Z,1.30
2022-10-23T12:40:34.785Z,1.70
2022-10-23T12:43:22.685Z,1.40
2022-10-23T12:45:54.097Z,1.20
2022-10-23T12:48:26.336Z,1.70
2022-10-23T12:50:58.191Z,1.00
2022-10-23T12:53:29.116Z,1.60
2022-10-23T12:56:02.237Z,1.30
2022-10-23T12:58:35.329Z,1.60
2022-10-23T13:01:08.178Z,1.40
2022-10-23T13:03:41.434Z,1.10
2022-10-23T13:06:14.764Z,1.70
2022-10-23T13:08:47.967Z,1.40
2022-10-23T13:11:21.382Z,1.40
2022-10-23T13:13:52.415Z,1.30
2022-10-23T13:16:25.434Z,1.40
2022-10-23T13:18:56.270Z,1.30
2022-10-23T13:21:29.757Z,1.20
2022-10-23T13:24:00.816Z,1.40
2022-10-23T13:26:42.862Z,1.20
2022-10-23T13:29:23.053Z,1.30
2022-10-23T13:31:54.387Z,1.20
2022-10-23T13:34:30.375Z,1.20
2022-10-23T13:37:19.330Z,1.30
2022-10-23T13:40:00.318Z,1.20
2022-10-23T13:42:31.245Z,1.20
2022-10-23T13:45:01.977Z,1.00
2022-10-23T13:47:32.715Z,0.90
2022-10-23T13:50:03.555Z,1.10
2022-10-23T13:52:34.440Z,1.20
2022-10-23T13:55:05.633Z,1.20
2022-10-23T13:57:36.384Z,1.40
2022-10-23T14:00:09.286Z,1.10
2022-10-23T14:02:40.124Z,1.10
2022-10-23T14:05:11.902Z,1.00
2022-10-23T14:07:43.135Z,0.80
2022-10-23T14:10:14.169Z,1.00
2022-10-23T14:12:46.010Z,1.00
2022-10-23T14:15:17.088Z,0.90
2022-10-23T14:17:47.802Z,1.10
2022-10-23T14:20:19.247Z,1.00
2022-10-23T14:22:51.029Z,1.00
2022-10-23T14:25:21.979Z,1.10
2022-10-23T14:27:52.838Z,1.10
2022-10-23T14:30:23.756Z,1.00
2022-10-23T14:32:55.084Z,0.90
2022-10-23T14:35:26.152Z,1.00
2022-10-23T14:37:58.120Z,0.90
2022-10-23T14:40:29.880Z,1.00
2022-10-23T14:43:00.706Z,0.80
2022-10-23T14:45:31.582Z,0.90
2022-10-23T14:48:02.712Z,1.20
2022-10-23T14:50:35.614Z,1.10
2022-10-23T14:53:07.004Z,0.90
2022-10-23T14:55:37.733Z,1.00
2022-10-23T14:58:08.565Z,1.20
2022-10-23T15:00:39.497Z,1.20
2022-10-23T15:03:10.413Z,1.70
2022-10-23T15:05:45.243Z,1.20
2022-10-23T15:08:16.376Z,1.20
2022-10-23T15:10:47.230Z,1.30
2022-10-23T15:13:18.141Z,1.20
2022-10-23T15:15:49.045Z,1.30
2022-10-23T15:18:21.818Z,1.50
2022-10-23T15:20:56.340Z,1.70
2022-10-23T15:23:27.483Z,1.70
2022-10-23T15:26:03.317Z,1.60
2022-10-23T15:28:34.766Z,1.50
2022-10-23T15:31:06.296Z,1.60
2022-10-23T15:33:38.942Z,1.90
2022-10-23T15:36:10.685Z,2.70
2022-10-23T15:38:41.625Z,2.10
2022-10-23T15:41:18.360Z,1.90
2022-10-23T15:46:21.407Z,2.00
2022-10-23T15:48:52.250Z,2.20
2022-10-23T15:51:23.730Z,2.10
2022-10-23T15:53:57.073Z,2.30
2022-10-23T15:56:28.047Z,2.30
2022-10-23T15:58:59.109Z,2.30
2022-10-23T16:01:30.285Z,2.30
2022-10-23T16:04:01.555Z,2.30
2022-10-23T16:06:32.391Z,2.00
2022-10-23T16:09:03.886Z,2.20
2022-10-23T16:11:37.551Z,2.10
2022-10-23T16:14:09.247Z,2.10
2022-10-23T16:16:40.096Z,2.00
2022-10-23T16:19:12.105Z,2.50
2022-10-23T16:21:43.958Z,2.40
2022-10-23T16:24:14.919Z,2.60
2022-10-23T16:26:50.510Z,2.60
2022-10-23T16:29:22.112Z,2.50
2022-10-23T16:31:53.388Z,2.60
2022-10-23T16:34:24.472Z,2.60
2022-10-23T16:36:55.222Z,2.60
2022-10-23T16:39:26.145Z,2.70
2022-10-23T16:41:57.301Z,2.90
2022-10-23T16:44:28.387Z,2.80
2022-10-23T16:46:59.490Z,3.60
2022-10-23T16:49:32.296Z,3.80
2022-10-23T16:52:03.437Z,4.30
2022-10-23T16:54:34.629Z,3.60
2022-10-23T16:57:05.647Z,3.80
2022-10-23T16:59:37.068Z,3.80
2022-10-23T17:02:08.162Z,4.20
2022-10-23T17:04:41.287Z,3.90
2022-10-23T17:07:13.565Z,4.00
2022-10-23T17:09:46.725Z,4.90
2022-10-23T17:12:18.077Z,4.90
2022-10-23T17:14:49.158Z,3.90
2022-10-23T17:17:20.093Z,4.40
2022-10-23T17:19:51.086Z,4.30
2022-10-23T17:22:22.607Z,4.20
2022-10-23T17:24:54.178Z,4.40
2022-10-23T17:27:25.937Z,4.00
2022-10-23T17:29:57.525Z,4.00
2022-10-23T17:32:28.690Z,4.00
2022-10-23T17:34:59.793Z,4.50
2022-10-23T17:37:30.723Z,4.60
2022-10-23T17:40:02.800Z,3.80
2022-10-23T17:42:33.738Z,4.20
2022-10-23T17:45:04.575Z,3.60
2022-10-23T17:47:35.414Z,3.20
2022-10-23T17:50:09.545Z,3.60
2022-10-23T17:52:40.949Z,3.60
2022-10-23T17:55:12.824Z,3.70
2022-10-23T17:57:44.031Z,4.00
2022-10-23T18:00:16.672Z,4.00
2022-10-23T18:02:47.459Z,4.20
2022-10-23T18:05:18.734Z,4.00
2022-10-23T18:07:52.894Z,4.30
2022-10-23T18:10:23.928Z,4.10
2022-10-23T18:12:55.136Z,3.90
2022-10-23T18:15:26.024Z,4.30
2022-10-23T18:17:57.407Z,5.50
2022-10-23T18:20:28.646Z,6.10
2022-10-23T18:22:59.540Z,5.10
2022-10-23T18:25:30.495Z,4.50
2022-10-23T18:28:02.506Z,4.60
2022-10-23T18:30:33.652Z,3.90
2022-10-23T18:33:04.806Z,4.60
2022-10-23T18:35:37.922Z,4.20
2022-10-23T18:38:09.892Z,4.50
2022-10-23T18:40:44.352Z,4.20
2022-10-23T18:43:25.381Z,4.30
2022-10-23T18:46:06.759Z,3.30
2022-10-23T18:48:38.355Z,3.90
2022-10-23T18:51:16.027Z,3.20
2022-10-23T18:53:47.841Z,3.60
2022-10-23T18:56:22.927Z,3.30
2022-10-23T18:58:54.876Z,3.70
2022-10-23T19:01:27.776Z,3.90
2022-10-23T19:04:00.976Z,3.70
2022-10-23T19:06:32.910Z,3.60
2022-10-23T19:09:04.589Z,3.00
2022-10-23T19:11:35.878Z,3.70
2022-10-23T19:14:07.038Z,3.10
2022-10-23T19:16:43.191Z,3.70
2022-10-23T19:19:21.198Z,3.20
2022-10-23T19:21:53.289Z,3.40
2022-10-23T19:24:28.894Z,3.90
2022-10-23T19:27:02.016Z,3.10
2022-10-23T19:29:33.763Z,3.20
2022-10-23T19:32:04.741Z,2.80
2022-10-23T19:34:35.575Z,4.00
2022-10-23T19:37:06.585Z,3.40
2022-10-23T19:39:37.436Z,2.60
2022-10-23T19:42:09.152Z,2.40
2022-10-23T19:44:40.020Z,3.30
2022-10-23T19:47:10.984Z,2.80
2022-10-23T19:49:42.072Z,2.60
2022-10-23T19:52:12.866Z,2.60
2022-10-23T19:54:43.910Z,2.70
2022-10-23T19:57:17.037Z,3.00
2022-10-23T19:59:52.759Z,2.60
2022-10-23T20:02:24.193Z,2.60
2022-10-23T20:04:55.455Z,3.60
2022-10-23T20:07:26.296Z,2.60
2022-10-23T20:09:57.043Z,2.60
2022-10-23T20:12:27.978Z,2.70
2022-10-23T20:14:59.039Z,2.80
2022-10-23T20:17:30.076Z,2.60
2022-10-23T20:20:01.027Z,2.70
2022-10-23T20:22:31.766Z,2.70
2022-10-23T20:25:02.692Z,2.80
2022-10-23T20:27:33.411Z,2.80
2022-10-23T20:30:04.534Z,2.70
2022-10-23T20:32:36.145Z,2.00
2022-10-23T20:35:08.415Z,3.00
2022-10-23T20:37:39.244Z,2.30
2022-10-23T20:40:11.609Z,2.30
2022-10-23T20:42:42.460Z,2.20
2022-10-23T20:45:14.032Z,2.70
2022-10-23T20:47:46.717Z,2.50
2022-10-23T20:50:19.313Z,2.50
2022-10-23T20:52:50.119Z,2.20
2022-10-23T20:55:21.880Z,2.70
2022-10-23T20:57:52.621Z,2.30
2022-10-23T21:00:23.875Z,2.40
2022-10-23T21:02:54.905Z,2.40
2022-10-23T21:05:25.957Z,2.10
2022-10-23T21:07:57.118Z,2.40
2022-10-23T21:10:27.920Z,2.50
2022-10-23T21:12:58.524Z,2.30
2022-10-23T21:15:30.584Z,2.70
2022-10-23T21:18:07.997Z,2.50
2022-10-23T21:20:50.340Z,2.30
2022-10-23T21:23:21.589Z,2.20
2022-10-23T21:25:52.233Z,2.10
2022-10-23T21:28:22.940Z,2.70
2022-10-23T21:30:53.703Z,2.70
2022-10-23T21:33:24.346Z,2.50
2022-10-23T21:35:58.241Z,2.30
2022-10-23T21:38:37.321Z,2.70
2022-10-23T21:41:13.245Z,2.40
2022-10-23T21:43:44.897Z,2.70
2022-10-23T21:46:18.460Z,2.10
2022-10-23T21:48:49.613Z,2.10
2022-10-23T21:51:24.426Z,2.00
2022-10-23T21:53:56.673Z,2.30
2022-10-23T21:56:30.394Z,2.80
2022-10-23T21:59:03.158Z,2.40
2022-10-23T22:01:34.044Z,2.40
2022-10-23T22:04:04.916Z,2.50
2022-10-23T22:06:35.740Z,1.80
2022-10-23T22:09:07.805Z,2.10
2022-10-23T22:11:38.635Z,2.50
2022-10-23T22:14:09.449Z,2.00
2022-10-23T22:16:42.128Z,2.20
2022-10-23T22:19:15.493Z,2.20
2022-10-23T22:21:46.431Z,2.40
2022-10-23T22:24:18.607Z,2.10
2022-10-23T22:26:51.915Z,2.20
2022-10-23T22:29:25.069Z,1.90
2022-10-23T22:31:56.421Z,2.30
2022-10-23T22:37:20.226Z,2.00
2022-10-23T22:39:53.307Z,2.10
2022-10-23T22:42:24.259Z,1.90
2022-10-23T22:44:55.118Z,2.00
2022-10-23T22:47:25.898Z,2.00
2022-10-23T22:49:56.575Z,2.10
2022-10-23T22:52:27.781Z,2.20
2022-10-23T22:54:58.461Z,1.80
2022-10-23T22:57:29.062Z,1.60
2022-10-23T22:59:59.664Z,1.80
2022-10-23T23:02:30.675Z,2.40
2022-10-23T23:05:01.412Z,2.00
2022-10-23T23:07:32.154Z,1.80
2022-10-23T23:10:02.800Z,1.80
2022-10-23T23:12:33.423Z,2.10
2022-10-23T23:15:04.270Z,1.90
2022-10-23T23:17:34.854Z,2.10
2022-10-23T23:20:06.307Z,2.10
2022-10-23T23:22:36.905Z,1.90
2022-10-23T23:25:09.717Z,1.80
2022-10-23T23:27:41.379Z,2.00
2022-10-23T23:30:13.443Z,1.70
2022-10-23T23:32:44.558Z,1.90
2022-10-23T23:35:15.652Z,1.70
2022-10-23T23:37:46.518Z,1.50
2022-10-23T23:40:17.668Z,1.80
2022-10-23T23:42:48.315Z,1.80
2022-10-23T23:45:19.465Z,1.60
2022-10-23T23:47:50.065Z,1.90
2022-10-23T23:50:21.120Z,1.90
2022-10-23T23:52:52.009Z,2.00
2022-10-23T23:55:22.772Z,2.20
2022-10-23T23:57:53.399Z,1.60
